sensor_id;sensor_type;location;lat;lon;timestamp;pressure;altitude;pressure_sealevel;temperature;humidity
33280;BME280;20403;43.114;12.434;2022-07-29T00:00:59;99026.63;;;22.15;100.00
33280;BME280;20403;43.114;12.434;2022-07-29T00:03:24;99029.28;;;22.15;100.00
33280;BME280;20403;43.114;12.434;2022-07-29T00:05:50;99025.06;;;22.14;100.00
33280;BME280;20403;43.114;12.434;2022-07-29T00:08:17;99020.66;;;22.10;100.00
33280;BME280;20403;43.114;12.434;2022-07-29T00:10:43;99009.25;;;22.09;100.00
33280;BME280;20403;43.114;12.434;2022-07-29T00:13:08;99024.38;;;22.09;100.00
33280;BME280;20403;43.114;12.434;2022-07-29T00:15:34;99015.47;;;22.05;100.00
33280;BME280;20403;43.114;12.434;2022-07-29T00:17:59;99013.47;;;22.10;100.00
33280;BME280;20403;43.114;12.434;2022-07-29T00:20:25;99016.91;;;22.11;100.00
33280;BME280;20403;43.114;12.434;2022-07-29T00:22:50;99010.56;;;21.98;100.00
33280;BME280;20403;43.114;12.434;2022-07-29T00:25:16;99014.59;;;21.95;100.00
33280;BME280;20403;43.114;12.434;2022-07-29T00:27:41;99012.22;;;21.94;100.00
33280;BME280;20403;43.114;12.434;2022-07-29T00:30:07;99006.78;;;21.99;100.00
33280;BME280;20403;43.114;12.434;2022-07-29T00:32:33;99009.56;;;21.94;100.00
33280;BME280;20403;43.114;12.434;2022-07-29T00:34:58;99005.44;;;21.88;100.00
33280;BME280;20403;43.114;12.434;2022-07-29T00:37:42;98998.97;;;21.80;100.00
33280;BME280;20403;43.114;12.434;2022-07-29T00:40:08;99000.38;;;21.77;100.00
33280;BME280;20403;43.114;12.434;2022-07-29T00:42:48;99005.78;;;21.72;100.00
33280;BME280;20403;43.114;12.434;2022-07-29T00:45:14;99008.53;;;21.53;100.00
33280;BME280;20403;43.114;12.434;2022-07-29T00:47:40;99009.25;;;21.45;100.00
33280;BME280;20403;43.114;12.434;2022-07-29T00:50:07;99008.34;;;21.36;100.00
33280;BME280;20403;43.114;12.434;2022-07-29T00:52:34;99007.34;;;21.32;100.00
33280;BME280;20403;43.114;12.434;2022-07-29T00:55:01;99010.28;;;21.30;100.00
33280;BME280;20403;43.114;12.434;2022-07-29T00:57:27;99010.50;;;21.34;100.00
33280;BME280;20403;43.114;12.434;2022-07-29T00:59:52;99004.69;;;21.32;100.00
33280;BME280;20403;43.114;12.434;2022-07-29T01:02:18;99006.16;;;21.38;100.00
33280;BME280;20403;43.114;12.434;2022-07-29T01:04:43;99008.03;;;21.37;100.00
33280;BME280;20403;43.114;12.434;2022-07-29T01:07:09;99007.84;;;21.34;100.00
33280;BME280;20403;43.114;12.434;2022-07-29T01:09:36;99011.00;;;21.36;100.00
33280;BME280;20403;43.114;12.434;2022-07-29T01:12:04;99003.53;;;21.38;100.00
33280;BME280;20403;43.114;12.434;2022-07-29T01:14:30;99000.88;;;21.38;100.00
33280;BME280;20403;43.114;12.434;2022-07-29T01:17:17;99005.09;;;21.39;100.00
33280;BME280;20403;43.114;12.434;2022-07-29T01:19:47;99003.53;;;21.38;100.00
33280;BME280;20403;43.114;12.434;2022-07-29T01:30:55;99002.16;;;21.54;100.00
33280;BME280;20403;43.114;12.434;2022-07-29T01:33:24;98991.66;;;21.49;100.00
33280;BME280;20403;43.114;12.434;2022-07-29T01:36:47;98981.63;;;21.46;100.00
33280;BME280;20403;43.114;12.434;2022-07-29T01:39:18;98989.94;;;21.39;100.00
33280;BME280;20403;43.114;12.434;2022-07-29T01:41:58;98988.38;;;21.38;100.00
33280;BME280;20403;43.114;12.434;2022-07-29T01:44:33;98985.63;;;21.30;100.00
33280;BME280;20403;43.114;12.434;2022-07-29T01:47:05;98989.38;;;21.29;100.00
33280;BME280;20403;43.114;12.434;2022-07-29T01:49:36;98994.28;;;21.22;100.00
33280;BME280;20403;43.114;12.434;2022-07-29T01:52:18;98988.97;;;21.22;100.00
33280;BME280;20403;43.114;12.434;2022-07-29T01:54:58;98983.97;;;21.34;100.00
33280;BME280;20403;43.114;12.434;2022-07-29T01:57:29;98986.22;;;21.27;100.00
33280;BME280;20403;43.114;12.434;2022-07-29T01:59:58;98995.84;;;21.23;100.00
33280;BME280;20403;43.114;12.434;2022-07-29T02:02:26;98996.84;;;21.27;100.00
33280;BME280;20403;43.114;12.434;2022-07-29T02:04:53;98991.91;;;21.34;100.00
33280;BME280;20403;43.114;12.434;2022-07-29T02:07:22;98996.84;;;21.27;100.00
33280;BME280;20403;43.114;12.434;2022-07-29T02:09:50;98990.75;;;21.26;100.00
33280;BME280;20403;43.114;12.434;2022-07-29T02:12:17;98984.19;;;21.24;100.00
33280;BME280;20403;43.114;12.434;2022-07-29T02:14:51;98994.84;;;21.18;100.00
33280;BME280;20403;43.114;12.434;2022-07-29T02:17:25;98986.00;;;21.09;100.00
33280;BME280;20403;43.114;12.434;2022-07-29T02:19:53;98987.97;;;21.04;100.00
33280;BME280;20403;43.114;12.434;2022-07-29T02:22:21;98982.88;;;21.07;100.00
33280;BME280;20403;43.114;12.434;2022-07-29T02:24:50;98980.13;;;21.12;100.00
33280;BME280;20403;43.114;12.434;2022-07-29T02:27:17;98989.47;;;21.10;100.00
33280;BME280;20403;43.114;12.434;2022-07-29T02:29:46;98982.56;;;20.95;100.00
33280;BME280;20403;43.114;12.434;2022-07-29T02:32:13;98985.59;;;20.88;100.00
33280;BME280;20403;43.114;12.434;2022-07-29T02:34:41;98985.97;;;20.82;100.00
33280;BME280;20403;43.114;12.434;2022-07-29T02:37:09;98987.84;;;20.81;100.00
33280;BME280;20403;43.114;12.434;2022-07-29T02:39:36;98995.03;;;20.81;100.00
33280;BME280;20403;43.114;12.434;2022-07-29T02:42:06;98993.34;;;20.71;100.00
33280;BME280;20403;43.114;12.434;2022-07-29T02:44:33;99001.56;;;20.69;100.00
33280;BME280;20403;43.114;12.434;2022-07-29T02:47:16;98993.16;;;20.81;100.00
33280;BME280;20403;43.114;12.434;2022-07-29T02:55:31;98989.13;;;20.84;100.00
33280;BME280;20403;43.114;12.434;2022-07-29T02:58:24;98993.34;;;20.71;100.00
33280;BME280;20403;43.114;12.434;2022-07-29T03:00:55;98989.81;;;20.75;100.00
33280;BME280;20403;43.114;12.434;2022-07-29T03:03:21;98991.47;;;20.71;100.00
33280;BME280;20403;43.114;12.434;2022-07-29T03:05:47;98996.16;;;20.74;100.00
33280;BME280;20403;43.114;12.434;2022-07-29T03:08:14;98994.81;;;20.77;100.00
33280;BME280;20403;43.114;12.434;2022-07-29T03:10:43;98988.44;;;20.78;100.00
33280;BME280;20403;43.114;12.434;2022-07-29T03:13:10;98988.44;;;20.78;100.00
33280;BME280;20403;43.114;12.434;2022-07-29T03:15:38;98990.59;;;20.76;100.00
33280;BME280;20403;43.114;12.434;2022-07-29T03:18:05;98989.59;;;20.72;100.00
33280;BME280;20403;43.114;12.434;2022-07-29T03:20:31;98983.09;;;20.64;100.00
33280;BME280;20403;43.114;12.434;2022-07-29T03:22:56;98983.28;;;20.68;100.00
33280;BME280;20403;43.114;12.434;2022-07-29T03:25:22;98974.59;;;20.81;100.00
33280;BME280;20403;43.114;12.434;2022-07-29T03:27:48;98978.13;;;20.76;100.00
33280;BME280;20403;43.114;12.434;2022-07-29T03:30:14;98981.94;;;20.70;100.00
33280;BME280;20403;43.114;12.434;2022-07-29T03:32:41;98986.44;;;20.70;100.00
33280;BME280;20403;43.114;12.434;2022-07-29T03:35:07;98977.66;;;20.55;100.00
33280;BME280;20403;43.114;12.434;2022-07-29T03:37:33;98990.97;;;20.69;100.00
33280;BME280;20403;43.114;12.434;2022-07-29T03:40:03;98989.56;;;20.58;100.00
33280;BME280;20403;43.114;12.434;2022-07-29T03:42:33;98987.91;;;20.62;100.00
33280;BME280;20403;43.114;12.434;2022-07-29T03:45:06;98998.78;;;20.61;100.00
33280;BME280;20403;43.114;12.434;2022-07-29T03:47:33;98994.75;;;20.63;100.00
33280;BME280;20403;43.114;12.434;2022-07-29T03:50:02;98999.00;;;20.64;100.00
33280;BME280;20403;43.114;12.434;2022-07-29T03:52:30;98987.63;;;20.64;100.00
33280;BME280;20403;43.114;12.434;2022-07-29T03:54:56;98997.53;;;20.72;100.00
33280;BME280;20403;43.114;12.434;2022-07-29T03:57:24;98994.59;;;20.73;100.00
33280;BME280;20403;43.114;12.434;2022-07-29T03:59:53;98996.75;;;20.71;100.00
33280;BME280;20403;43.114;12.434;2022-07-29T04:02:18;98998.50;;;20.62;100.00
33280;BME280;20403;43.114;12.434;2022-07-29T04:04:45;99009.38;;;20.61;100.00
33280;BME280;20403;43.114;12.434;2022-07-29T04:07:14;99012.03;;;20.61;100.00
33280;BME280;20403;43.114;12.434;2022-07-29T04:09:40;99019.25;;;20.55;100.00
33280;BME280;20403;43.114;12.434;2022-07-29T04:12:06;99014.25;;;20.53;100.00
33280;BME280;20403;43.114;12.434;2022-07-29T04:14:32;99007.53;;;20.61;100.00
33280;BME280;20403;43.114;12.434;2022-07-29T04:16:59;99014.03;;;20.69;100.00
33280;BME280;20403;43.114;12.434;2022-07-29T04:19:25;99019.06;;;20.70;100.00
33280;BME280;20403;43.114;12.434;2022-07-29T04:21:50;99021.06;;;20.60;100.00
33280;BME280;20403;43.114;12.434;2022-07-29T04:24:16;99027.94;;;20.61;100.00
33280;BME280;20403;43.114;12.434;2022-07-29T04:26:42;99019.09;;;20.65;100.00
33280;BME280;20403;43.114;12.434;2022-07-29T04:29:07;99025.13;;;20.71;100.00
33280;BME280;20403;43.114;12.434;2022-07-29T04:31:33;99027.78;;;20.71;100.00
33280;BME280;20403;43.114;12.434;2022-07-29T04:33:58;99020.34;;;20.73;100.00
33280;BME280;20403;43.114;12.434;2022-07-29T04:36:24;99031.13;;;20.76;100.00
33280;BME280;20403;43.114;12.434;2022-07-29T04:38:49;99033.00;;;20.76;100.00
33280;BME280;20403;43.114;12.434;2022-07-29T04:41:15;99037.00;;;20.73;100.00
33280;BME280;20403;43.114;12.434;2022-07-29T04:43:40;99032.09;;;20.67;100.00
33280;BME280;20403;43.114;12.434;2022-07-29T04:46:06;99040.91;;;20.62;100.00
33280;BME280;20403;43.114;12.434;2022-07-29T04:48:32;99042.03;;;20.56;100.00
33280;BME280;20403;43.114;12.434;2022-07-29T04:50:57;99032.78;;;20.53;100.00
33280;BME280;20403;43.114;12.434;2022-07-29T04:53:23;99049.72;;;20.58;100.00
33280;BME280;20403;43.114;12.434;2022-07-29T04:55:49;99047.69;;;20.68;100.00
33280;BME280;20403;43.114;12.434;2022-07-29T04:58:14;99054.97;;;20.76;100.00
33280;BME280;20403;43.114;12.434;2022-07-29T05:00:40;99051.09;;;20.88;100.00
33280;BME280;20403;43.114;12.434;2022-07-29T05:03:05;99049.63;;;20.95;100.00
33280;BME280;20403;43.114;12.434;2022-07-29T05:05:31;99049.09;;;21.12;100.00
33280;BME280;20403;43.114;12.434;2022-07-29T05:07:56;99055.66;;;21.15;100.00
33280;BME280;20403;43.114;12.434;2022-07-29T05:10:22;99051.94;;;21.30;100.00
33280;BME280;20403;43.114;12.434;2022-07-29T05:12:47;99053.91;;;21.38;100.00
33280;BME280;20403;43.114;12.434;2022-07-29T05:15:13;99052.19;;;21.47;100.00
33280;BME280;20403;43.114;12.434;2022-07-29T05:17:38;99059.44;;;21.55;100.00
33280;BME280;20403;43.114;12.434;2022-07-29T05:20:05;99056.41;;;21.62;100.00
33280;BME280;20403;43.114;12.434;2022-07-29T05:22:30;99061.53;;;21.58;100.00
33280;BME280;20403;43.114;12.434;2022-07-29T05:24:56;99059.75;;;21.68;100.00
33280;BME280;20403;43.114;12.434;2022-07-29T05:27:21;99064.97;;;21.73;100.00
33280;BME280;20403;43.114;12.434;2022-07-29T05:29:47;99062.09;;;21.83;100.00
33280;BME280;20403;43.114;12.434;2022-07-29T05:32:12;99069.38;;;21.91;100.00
33280;BME280;20403;43.114;12.434;2022-07-29T05:34:38;99066.72;;;21.91;100.00
33280;BME280;20403;43.114;12.434;2022-07-29T05:37:03;99073.78;;;21.96;100.00
33280;BME280;20403;43.114;12.434;2022-07-29T05:39:29;99082.25;;;21.98;100.00
33280;BME280;20403;43.114;12.434;2022-07-29T05:41:54;99079.75;;;22.01;100.00
33280;BME280;20403;43.114;12.434;2022-07-29T05:44:20;99080.38;;;21.98;100.00
33280;BME280;20403;43.114;12.434;2022-07-29T05:46:45;99084.00;;;22.02;100.00
33280;BME280;20403;43.114;12.434;2022-07-29T05:49:11;99091.34;;;22.19;100.00
33280;BME280;20403;43.114;12.434;2022-07-29T05:51:37;99093.34;;;22.14;100.00
33280;BME280;20403;43.114;12.434;2022-07-29T05:54:02;99090.78;;;22.22;100.00
33280;BME280;20403;43.114;12.434;2022-07-29T05:56:28;99096.09;;;22.22;100.00
33280;BME280;20403;43.114;12.434;2022-07-29T05:58:53;99096.16;;;22.31;100.00
33280;BME280;20403;43.114;12.434;2022-07-29T06:01:19;99094.50;;;22.35;100.00
33280;BME280;20403;43.114;12.434;2022-07-29T06:03:44;99091.50;;;22.51;100.00
33280;BME280;20403;43.114;12.434;2022-07-29T06:06:10;99082.00;;;22.58;100.00
33280;BME280;20403;43.114;12.434;2022-07-29T06:08:36;99087.50;;;22.62;100.00
33280;BME280;20403;43.114;12.434;2022-07-29T06:11:02;99097.06;;;22.85;100.00
33280;BME280;20403;43.114;12.434;2022-07-29T06:13:28;99089.88;;;23.09;100.00
33280;BME280;20403;43.114;12.434;2022-07-29T06:15:53;99093.47;;;23.13;100.00
33280;BME280;20403;43.114;12.434;2022-07-29T06:18:19;99090.88;;;23.21;100.00
33280;BME280;20403;43.114;12.434;2022-07-29T06:20:46;99094.75;;;23.46;100.00
33280;BME280;20403;43.114;12.434;2022-07-29T06:23:11;99097.72;;;23.45;100.00
33280;BME280;20403;43.114;12.434;2022-07-29T06:25:37;99100.56;;;23.48;100.00
33280;BME280;20403;43.114;12.434;2022-07-29T06:28:04;99098.41;;;23.59;100.00
33280;BME280;20403;43.114;12.434;2022-07-29T06:30:30;99104.84;;;23.67;100.00
33280;BME280;20403;43.114;12.434;2022-07-29T06:32:55;99099.59;;;23.84;100.00
33280;BME280;20403;43.114;12.434;2022-07-29T06:35:21;99094.81;;;24.04;100.00
33280;BME280;20403;43.114;12.434;2022-07-29T06:37:47;99089.63;;;23.99;100.00
33280;BME280;20403;43.114;12.434;2022-07-29T06:40:12;99092.91;;;23.96;100.00
33280;BME280;20403;43.114;12.434;2022-07-29T06:42:56;99098.41;;;23.99;100.00
33280;BME280;20403;43.114;12.434;2022-07-29T06:45:21;99095.28;;;24.06;100.00
33280;BME280;20403;43.114;12.434;2022-07-29T06:47:47;99087.31;;;24.32;100.00
33280;BME280;20403;43.114;12.434;2022-07-29T06:50:13;99090.59;;;24.46;100.00
33280;BME280;20403;43.114;12.434;2022-07-29T06:52:39;99088.56;;;24.61;100.00
33280;BME280;20403;43.114;12.434;2022-07-29T06:55:05;99094.84;;;24.73;100.00
33280;BME280;20403;43.114;12.434;2022-07-29T06:57:31;99094.53;;;24.75;100.00
33280;BME280;20403;43.114;12.434;2022-07-29T06:59:56;99096.88;;;24.85;100.00
33280;BME280;20403;43.114;12.434;2022-07-29T07:02:22;99104.41;;;24.83;100.00
33280;BME280;20403;43.114;12.434;2022-07-29T07:04:47;99105.47;;;25.00;100.00
33280;BME280;20403;43.114;12.434;2022-07-29T07:07:13;99106.97;;;25.35;100.00
33280;BME280;20403;43.114;12.434;2022-07-29T07:09:38;99101.44;;;25.49;100.00
33280;BME280;20403;43.114;12.434;2022-07-29T07:12:04;99105.09;;;25.74;100.00
33280;BME280;20403;43.114;12.434;2022-07-29T07:14:29;99095.06;;;26.01;100.00
33280;BME280;20403;43.114;12.434;2022-07-29T07:16:55;99098.47;;;26.10;100.00
33280;BME280;20403;43.114;12.434;2022-07-29T07:19:20;99097.75;;;26.22;100.00
33280;BME280;20403;43.114;12.434;2022-07-29T07:21:45;99102.50;;;26.37;100.00
33280;BME280;20403;43.114;12.434;2022-07-29T07:24:11;99097.34;;;26.53;100.00
33280;BME280;20403;43.114;12.434;2022-07-29T07:26:36;99100.28;;;26.39;100.00
33280;BME280;20403;43.114;12.434;2022-07-29T07:29:03;99104.16;;;26.51;100.00
33280;BME280;20403;43.114;12.434;2022-07-29T07:31:28;99103.63;;;26.78;100.00
33280;BME280;20403;43.114;12.434;2022-07-29T07:33:54;99096.22;;;26.75;100.00
33280;BME280;20403;43.114;12.434;2022-07-29T07:36:19;99092.03;;;26.87;100.00
33280;BME280;20403;43.114;12.434;2022-07-29T07:38:44;99097.13;;;27.13;100.00
33280;BME280;20403;43.114;12.434;2022-07-29T07:41:10;99084.13;;;27.48;100.00
33280;BME280;20403;43.114;12.434;2022-07-29T07:43:35;99088.03;;;27.51;100.00
33280;BME280;20403;43.114;12.434;2022-07-29T07:46:01;99079.31;;;27.78;100.00
33280;BME280;20403;43.114;12.434;2022-07-29T07:48:26;99084.25;;;28.01;100.00
33280;BME280;20403;43.114;12.434;2022-07-29T07:50:52;99079.59;;;28.26;100.00
33280;BME280;20403;43.114;12.434;2022-07-29T07:53:17;99086.63;;;28.18;100.00
33280;BME280;20403;43.114;12.434;2022-07-29T07:55:43;99081.25;;;28.31;100.00
33280;BME280;20403;43.114;12.434;2022-07-29T07:58:09;99072.47;;;28.46;100.00
33280;BME280;20403;43.114;12.434;2022-07-29T08:00:35;99075.34;;;28.65;100.00
33280;BME280;20403;43.114;12.434;2022-07-29T08:03:00;99070.94;;;28.73;100.00
33280;BME280;20403;43.114;12.434;2022-07-29T08:05:26;99076.28;;;28.73;100.00
33280;BME280;20403;43.114;12.434;2022-07-29T08:07:51;99080.22;;;28.91;100.00
33280;BME280;20403;43.114;12.434;2022-07-29T08:10:18;99085.94;;;29.06;100.00
33280;BME280;20403;43.114;12.434;2022-07-29T08:13:08;99079.47;;;29.23;100.00
33280;BME280;20403;43.114;12.434;2022-07-29T08:15:34;99086.88;;;29.26;100.00
33280;BME280;20403;43.114;12.434;2022-07-29T08:18:00;99090.91;;;29.51;100.00
33280;BME280;20403;43.114;12.434;2022-07-29T08:20:26;99085.44;;;29.80;100.00
33280;BME280;20403;43.114;12.434;2022-07-29T08:22:52;99083.72;;;30.07;100.00
33280;BME280;20403;43.114;12.434;2022-07-29T08:25:18;99076.09;;;30.09;100.00
33280;BME280;20403;43.114;12.434;2022-07-29T08:27:46;99088.19;;;30.19;100.00
33280;BME280;20403;43.114;12.434;2022-07-29T08:30:12;99080.13;;;30.38;100.00
33280;BME280;20403;43.114;12.434;2022-07-29T08:32:38;99080.25;;;30.65;100.00
33280;BME280;20403;43.114;12.434;2022-07-29T08:35:03;99076.63;;;30.76;100.00
33280;BME280;20403;43.114;12.434;2022-07-29T08:37:29;99073.22;;;30.99;100.00
33280;BME280;20403;43.114;12.434;2022-07-29T08:39:54;99074.28;;;30.94;100.00
33280;BME280;20403;43.114;12.434;2022-07-29T08:42:21;99087.91;;;30.63;100.00
33280;BME280;20403;43.114;12.434;2022-07-29T08:44:46;99073.09;;;30.72;100.00
33280;BME280;20403;43.114;12.434;2022-07-29T08:47:15;99083.50;;;30.74;100.00
33280;BME280;20403;43.114;12.434;2022-07-29T08:49:40;99082.97;;;30.65;100.00
33280;BME280;20403;43.114;12.434;2022-07-29T08:52:06;99078.84;;;30.51;100.00
33280;BME280;20403;43.114;12.434;2022-07-29T08:54:31;99073.75;;;30.85;100.00
33280;BME280;20403;43.114;12.434;2022-07-29T08:56:58;99076.97;;;31.17;100.00
33280;BME280;20403;43.114;12.434;2022-07-29T08:59:25;99078.81;;;31.36;100.00
33280;BME280;20403;43.114;12.434;2022-07-29T09:01:53;99081.41;;;31.52;100.00
33280;BME280;20403;43.114;12.434;2022-07-29T09:04:20;99081.91;;;31.61;100.00
33280;BME280;20403;43.114;12.434;2022-07-29T09:06:51;99082.06;;;31.46;100.00
33280;BME280;20403;43.114;12.434;2022-07-29T09:09:17;99073.81;;;31.61;100.00
33280;BME280;20403;43.114;12.434;2022-07-29T09:11:42;99067.59;;;31.57;100.00
33280;BME280;20403;43.114;12.434;2022-07-29T09:14:12;99072.09;;;31.76;100.00
33280;BME280;20403;43.114;12.434;2022-07-29T09:19:32;99074.56;;;31.89;100.00
33280;BME280;20403;43.114;12.434;2022-07-29T09:22:00;99063.06;;;31.92;100.00
33280;BME280;20403;43.114;12.434;2022-07-29T09:24:46;99059.28;;;32.30;100.00
33280;BME280;20403;43.114;12.434;2022-07-29T09:27:25;99058.91;;;32.62;100.00
33280;BME280;20403;43.114;12.434;2022-07-29T09:30:10;99071.72;;;32.05;100.00
33280;BME280;20403;43.114;12.434;2022-07-29T09:32:58;99053.13;;;31.69;100.00
33280;BME280;20403;43.114;12.434;2022-07-29T09:35:25;99057.78;;;31.72;100.00
33280;BME280;20403;43.114;12.434;2022-07-29T09:37:51;99053.78;;;31.89;99.56
33280;BME280;20403;43.114;12.434;2022-07-29T09:40:25;99045.09;;;32.37;90.51
33280;BME280;20403;43.114;12.434;2022-07-29T09:42:51;99040.03;;;32.65;91.40
33280;BME280;20403;43.114;12.434;2022-07-29T09:45:33;99034.81;;;32.87;89.00
33280;BME280;20403;43.114;12.434;2022-07-29T09:48:12;99035.06;;;33.16;83.13
33280;BME280;20403;43.114;12.434;2022-07-29T09:50:39;99031.81;;;32.99;73.28
33280;BME280;20403;43.114;12.434;2022-07-29T09:53:05;99025.84;;;33.20;70.87
33280;BME280;20403;43.114;12.434;2022-07-29T09:55:31;99020.38;;;33.13;79.72
33280;BME280;20403;43.114;12.434;2022-07-29T09:58:18;99028.06;;;33.08;77.03
33280;BME280;20403;43.114;12.434;2022-07-29T10:00:45;99027.44;;;33.28;72.38
33280;BME280;20403;43.114;12.434;2022-07-29T10:03:12;99016.63;;;33.28;72.61
33280;BME280;20403;43.114;12.434;2022-07-29T10:05:38;99016.31;;;33.37;72.37
33280;BME280;20403;43.114;12.434;2022-07-29T10:08:04;99019.69;;;33.86;71.48
33280;BME280;20403;43.114;12.434;2022-07-29T10:10:33;99019.81;;;34.15;63.82
33280;BME280;20403;43.114;12.434;2022-07-29T10:15:31;99015.97;;;34.34;57.36
33280;BME280;20403;43.114;12.434;2022-07-29T10:17:58;99006.75;;;34.63;54.19
33280;BME280;20403;43.114;12.434;2022-07-29T10:20:25;98999.03;;;34.90;54.92
33280;BME280;20403;43.114;12.434;2022-07-29T10:22:52;98993.22;;;34.81;54.86
33280;BME280;20403;43.114;12.434;2022-07-29T10:25:18;98997.44;;;34.39;54.02
33280;BME280;20403;43.114;12.434;2022-07-29T10:27:46;99001.69;;;34.40;57.92
33280;BME280;20403;43.114;12.434;2022-07-29T10:30:14;98993.97;;;34.53;56.52
33280;BME280;20403;43.114;12.434;2022-07-29T10:38:15;98974.63;;;35.16;52.98
33280;BME280;20403;43.114;12.434;2022-07-29T10:41:05;98971.47;;;35.46;51.24
33280;BME280;20403;43.114;12.434;2022-07-29T10:44:05;98968.03;;;35.24;51.51
33280;BME280;20403;43.114;12.434;2022-07-29T10:46:36;98971.81;;;35.59;52.58
33280;BME280;20403;43.114;12.434;2022-07-29T10:54:16;98960.38;;;36.10;46.21
33280;BME280;20403;43.114;12.434;2022-07-29T10:56:42;98968.78;;;35.39;48.19
33280;BME280;20403;43.114;12.434;2022-07-29T11:01:49;98947.78;;;35.53;50.70
33280;BME280;20403;43.114;12.434;2022-07-29T11:05:02;98954.03;;;35.43;49.93
33280;BME280;20403;43.114;12.434;2022-07-29T11:09:29;98946.22;;;35.70;48.70
33280;BME280;20403;43.114;12.434;2022-07-29T11:11:56;98947.75;;;35.68;47.32
33280;BME280;20403;43.114;12.434;2022-07-29T11:14:59;98937.53;;;36.01;46.95
33280;BME280;20403;43.114;12.434;2022-07-29T11:17:26;98939.41;;;36.14;43.55
33280;BME280;20403;43.114;12.434;2022-07-29T11:22:56;98935.44;;;36.23;42.09
33280;BME280;20403;43.114;12.434;2022-07-29T11:25:21;98936.91;;;36.38;39.92
33280;BME280;20403;43.114;12.434;2022-07-29T11:27:47;98932.09;;;36.60;39.77
33280;BME280;20403;43.114;12.434;2022-07-29T11:30:12;98937.59;;;36.46;39.87
33280;BME280;20403;43.114;12.434;2022-07-29T11:32:42;98927.44;;;36.61;40.31
33280;BME280;20403;43.114;12.434;2022-07-29T11:35:15;98935.09;;;36.73;41.75
33280;BME280;20403;43.114;12.434;2022-07-29T11:37:40;98924.53;;;36.82;40.88
33280;BME280;20403;43.114;12.434;2022-07-29T11:45:04;98927.31;;;36.71;38.81
33280;BME280;20403;43.114;12.434;2022-07-29T11:50:16;98920.81;;;36.99;38.44
33280;BME280;20403;43.114;12.434;2022-07-29T11:52:46;98914.88;;;37.15;37.89
33280;BME280;20403;43.114;12.434;2022-07-29T11:55:15;98918.72;;;37.18;37.67
33280;BME280;20403;43.114;12.434;2022-07-29T11:57:52;98911.50;;;37.38;37.14
33280;BME280;20403;43.114;12.434;2022-07-29T12:00:23;98920.75;;;37.10;35.28
33280;BME280;20403;43.114;12.434;2022-07-29T12:02:49;98920.69;;;36.76;34.93
33280;BME280;20403;43.114;12.434;2022-07-29T12:05:16;98905.25;;;37.04;35.18
33280;BME280;20403;43.114;12.434;2022-07-29T12:07:41;98900.66;;;37.35;35.47
33280;BME280;20403;43.114;12.434;2022-07-29T12:10:08;98914.81;;;37.53;35.33
33280;BME280;20403;43.114;12.434;2022-07-29T12:12:34;98906.13;;;37.31;34.88
33280;BME280;20403;43.114;12.434;2022-07-29T12:15:13;98904.97;;;37.32;35.23
33280;BME280;20403;43.114;12.434;2022-07-29T12:17:38;98900.00;;;37.58;34.67
33280;BME280;20403;43.114;12.434;2022-07-29T12:20:05;98904.31;;;37.55;33.95
33280;BME280;20403;43.114;12.434;2022-07-29T12:22:36;98900.44;;;37.53;34.13
33280;BME280;20403;43.114;12.434;2022-07-29T12:25:13;98901.13;;;37.30;34.87
33280;BME280;20403;43.114;12.434;2022-07-29T12:27:44;98903.09;;;36.88;33.09
33280;BME280;20403;43.114;12.434;2022-07-29T12:30:14;98891.59;;;37.11;33.46
33280;BME280;20403;43.114;12.434;2022-07-29T12:32:45;98903.91;;;36.85;31.30
33280;BME280;20403;43.114;12.434;2022-07-29T12:35:14;98898.06;;;36.86;32.50
33280;BME280;20403;43.114;12.434;2022-07-29T12:37:42;98893.97;;;37.09;31.99
33280;BME280;20403;43.114;12.434;2022-07-29T12:40:10;98888.31;;;37.27;29.63
33280;BME280;20403;43.114;12.434;2022-07-29T12:42:36;98885.59;;;37.61;29.88
33280;BME280;20403;43.114;12.434;2022-07-29T12:45:03;98877.78;;;37.63;31.52
33280;BME280;20403;43.114;12.434;2022-07-29T12:47:29;98883.38;;;37.18;32.32
33280;BME280;20403;43.114;12.434;2022-07-29T12:50:11;98872.38;;;37.29;34.00
33280;BME280;20403;43.114;12.434;2022-07-29T12:52:39;98869.56;;;37.67;33.58
33280;BME280;20403;43.114;12.434;2022-07-29T12:55:05;98866.47;;;37.92;32.50
33280;BME280;20403;43.114;12.434;2022-07-29T12:57:30;98868.16;;;37.82;32.74
33280;BME280;20403;43.114;12.434;2022-07-29T13:00:06;98872.63;;;37.38;33.03
33280;BME280;20403;43.114;12.434;2022-07-29T13:02:33;98863.16;;;37.50;33.94
33280;BME280;20403;43.114;12.434;2022-07-29T13:05:00;98867.47;;;37.47;33.49
33280;BME280;20403;43.114;12.434;2022-07-29T13:07:27;98867.41;;;37.81;33.83
33280;BME280;20403;43.114;12.434;2022-07-29T13:10:09;98862.72;;;37.82;33.40
33280;BME280;20403;43.114;12.434;2022-07-29T13:12:35;98851.47;;;38.07;33.14
33280;BME280;20403;43.114;12.434;2022-07-29T13:15:15;98852.41;;;37.97;33.41
33280;BME280;20403;43.114;12.434;2022-07-29T13:17:42;98850.44;;;37.97;33.38
33280;BME280;20403;43.114;12.434;2022-07-29T13:20:10;98833.66;;;38.02;33.40
33280;BME280;20403;43.114;12.434;2022-07-29T13:22:40;98827.34;;;37.55;33.18
33280;BME280;20403;43.114;12.434;2022-07-29T13:25:08;98820.81;;;37.18;33.77
33280;BME280;20403;43.114;12.434;2022-07-29T13:27:35;98825.78;;;36.92;33.63
33280;BME280;20403;43.114;12.434;2022-07-29T13:30:06;98820.22;;;36.69;33.90
33280;BME280;20403;43.114;12.434;2022-07-29T13:32:33;98814.00;;;36.72;33.93
33280;BME280;20403;43.114;12.434;2022-07-29T13:35:06;98808.31;;;36.93;33.48